^^
Saratoga-Weather Station Historical Data
Daily Summary for August 12, 2020 Units:  Both    English   Metric
Daily Weekly Monthly Yearly Custom
  High: Low: Average:
Temperature: 75.7 °F /  24.3 °C 48.4 °F /  9.1 °C 60.3 °F /  15.7 °C
Dew Point: 50.9 °F /  10.5 °C 38.8 °F /  3.8 °C 45.3 °F /  7.4 °C
Humidity: 87% 28% 62%
Wind Speed: 10.1mph /  16.3km/h - 1mph /  1.6km/h
Wind Gust: 11mph /  17.7km/h - -
Wind- - SSW
Pressure: 30.1 in /  1019.3 hPa 29.9 in /  1011.5 hPa -
Precipitation: 0 in /  0.0 mm    
Historical Graphs
 
 
Tabular Data for August 12, 2020
Time Temperature Dew Point Pressure Wind Wind Speed Wind Gust Humidity Rainfall Rate (Hourly) solar
00:02 55.2 °F /  12.9 °C 46 °F /  7.8 °C 30.1in /  1019.3hPa SE 0.9mph /  1.4km/h 2mph /  3.2km/h 71% 0in /  0.0mm 0 W/m2
00:07 55 °F /  12.8 °C 46.2 °F /  7.9 °C 30.1in /  1019.3hPa Calm   2mph /  3.2km/h 72% 0in /  0.0mm 0 W/m2
00:12 55 °F /  12.8 °C 46.2 °F /  7.9 °C 30.1in /  1019.3hPa West 0.9mph /  1.4km/h 1mph /  1.6km/h 72% 0in /  0.0mm 0 W/m2
00:17 55 °F /  12.8 °C 46.2 °F /  7.9 °C 30.1in /  1019.3hPa Calm   1mph /  1.6km/h 72% 0in /  0.0mm 0 W/m2
00:22 55 °F /  12.8 °C 45.9 °F /  7.7 °C 30.1in /  1019.3hPa SSE 2mph /  3.2km/h 2mph /  3.2km/h 71% 0in /  0.0mm 0 W/m2
00:27 55.2 °F /  12.9 °C 46.4 °F /  8 °C 30.1in /  1019.3hPa East 0.9mph /  1.4km/h 2mph /  3.2km/h 72% 0in /  0.0mm 0 W/m2
00:32 55.4 °F /  13 °C 46.2 °F /  7.9 °C 30.1in /  1019.3hPa Calm     71% 0in /  0.0mm 0 W/m2
00:37 55.4 °F /  13 °C 46.2 °F /  7.9 °C 30.1in /  1019.3hPa Calm   2mph /  3.2km/h 71% 0in /  0.0mm 0 W/m2
00:42 55.2 °F /  12.9 °C 46 °F /  7.8 °C 30.1in /  1019.3hPa Calm   1mph /  1.6km/h 71% 0in /  0.0mm 0 W/m2
00:47 55.2 °F /  12.9 °C 46.4 °F /  8 °C 30.1in /  1019.3hPa Calm   1mph /  1.6km/h 72% 0in /  0.0mm 0 W/m2
00:52 54.9 °F /  12.7 °C 46 °F /  7.8 °C 30.1in /  1019.3hPa West 2mph /  3.2km/h 4mph /  6.4km/h 72% 0in /  0.0mm 0 W/m2
00:57 54.9 °F /  12.7 °C 46 °F /  7.8 °C 30.1in /  1019.3hPa West 0.9mph /  1.4km/h 2mph /  3.2km/h 72% 0in /  0.0mm 0 W/m2
01:02 54.9 °F /  12.7 °C 46.4 °F /  8 °C 30.1in /  1019.3hPa SSW 0.9mph /  1.4km/h 1mph /  1.6km/h 73% 0in /  0.0mm 0 W/m2
01:07 54.7 °F /  12.6 °C 46.6 °F /  8.1 °C 30.1in /  1019.3hPa SSW 0.9mph /  1.4km/h 1mph /  1.6km/h 74% 0in /  0.0mm 0 W/m2
01:12 54.5 °F /  12.5 °C 46.4 °F /  8 °C 30.1in /  1019.3hPa Calm   2mph /  3.2km/h 74% 0in /  0.0mm 0 W/m2
01:17 54.3 °F /  12.4 °C 46.6 °F /  8.1 °C 30.1in /  1019.3hPa Calm   1mph /  1.6km/h 75% 0in /  0.0mm 0 W/m2
01:22 54.3 °F /  12.4 °C 46.6 °F /  8.1 °C 30.1in /  1019.3hPa SSW 0.9mph /  1.4km/h 1mph /  1.6km/h 75% 0in /  0.0mm 0 W/m2
01:28 54.1 °F /  12.3 °C 46.4 °F /  8 °C 30.1in /  1019.3hPa Calm     75% 0in /  0.0mm 0 W/m2
01:33 54 °F /  12.2 °C 46.2 °F /  7.9 °C 30.1in /  1019.3hPa Calm     75% 0in /  0.0mm 0 W/m2
01:38 53.8 °F /  12.1 °C 46 °F /  7.8 °C 30.1in /  1019.3hPa WNW 0.9mph /  1.4km/h 2mph /  3.2km/h 75% 0in /  0.0mm 0 W/m2
01:43 53.6 °F /  12 °C 46.2 °F /  7.9 °C 30.1in /  1019.3hPa WNW 0.9mph /  1.4km/h 1mph /  1.6km/h 76% 0in /  0.0mm 0 W/m2
01:48 53.4 °F /  11.9 °C 46 °F /  7.8 °C 30.1in /  1019.0hPa Calm   3mph /  4.8km/h 76% 0in /  0.0mm 0 W/m2
01:53 53.2 °F /  11.8 °C 45.9 °F /  7.7 °C 30.1in /  1019.3hPa Calm     76% 0in /  0.0mm 0 W/m2
01:58 53.1 °F /  11.7 °C 45.7 °F /  7.6 °C 30.1in /  1019.0hPa Calm   2mph /  3.2km/h 76% 0in /  0.0mm 0 W/m2
02:03 53.1 °F /  11.7 °C 46 °F /  7.8 °C 30.1in /  1019.0hPa Calm     77% 0in /  0.0mm 0 W/m2
02:08 52.9 °F /  11.6 °C 45.5 °F /  7.5 °C 30.1in /  1019.0hPa Calm     76% 0in /  0.0mm 0 W/m2
02:13 52.7 °F /  11.5 °C 45.7 °F /  7.6 °C 30.1in /  1019.0hPa Calm     77% 0in /  0.0mm 0 W/m2
02:18 52.5 °F /  11.4 °C 45.5 °F /  7.5 °C 30.1in /  1019.0hPa Calm   1mph /  1.6km/h 77% 0in /  0.0mm 0 W/m2
02:23 52.3 °F /  11.3 °C 45.7 °F /  7.6 °C 30.1in /  1019.0hPa Calm   1mph /  1.6km/h 78% 0in /  0.0mm 0 W/m2
02:28 52.2 °F /  11.2 °C 45.5 °F /  7.5 °C 30.1in /  1019.0hPa Calm   1mph /  1.6km/h 78% 0in /  0.0mm 0 W/m2
02:33 52.2 °F /  11.2 °C 45.5 °F /  7.5 °C 30.1in /  1019.0hPa Calm   2mph /  3.2km/h 78% 0in /  0.0mm 0 W/m2
02:38 52 °F /  11.1 °C 45.7 °F /  7.6 °C 30.1in /  1018.6hPa Calm   1mph /  1.6km/h 79% 0in /  0.0mm 0 W/m2
02:43 51.8 °F /  11 °C 45.5 °F /  7.5 °C 30.1in /  1018.6hPa WNW 0.9mph /  1.4km/h 2mph /  3.2km/h 79% 0in /  0.0mm 0 W/m2
02:48 51.6 °F /  10.9 °C 45.3 °F /  7.4 °C 30.1in /  1018.6hPa Calm     79% 0in /  0.0mm 0 W/m2
02:53 51.4 °F /  10.8 °C 45.1 °F /  7.3 °C 30.1in /  1018.6hPa Calm     79% 0in /  0.0mm 0 W/m2
02:58 51.3 °F /  10.7 °C 45.3 °F /  7.4 °C 30.1in /  1018.6hPa Calm     80% 0in /  0.0mm 0 W/m2
03:03 51.1 °F /  10.6 °C 45.1 °F /  7.3 °C 30.1in /  1018.6hPa Calm     80% 0in /  0.0mm 0 W/m2
03:08 50.9 °F /  10.5 °C 45 °F /  7.2 °C 30.1in /  1018.6hPa Calm     80% 0in /  0.0mm 0 W/m2
03:13 50.7 °F /  10.4 °C 45.1 °F /  7.3 °C 30.1in /  1018.3hPa Calm     81% 0in /  0.0mm 0 W/m2
03:18 50.5 °F /  10.3 °C 45 °F /  7.2 °C 30.1in /  1018.3hPa Calm     81% 0in /  0.0mm 0 W/m2
03:23 50.4 °F /  10.2 °C 44.8 °F /  7.1 °C 30.1in /  1018.3hPa Calm     81% 0in /  0.0mm 0 W/m2
03:28 50.2 °F /  10.1 °C 45 °F /  7.2 °C 30.1in /  1018.3hPa Calm     82% 0in /  0.0mm 0 W/m2
03:33 50 °F /  10 °C 44.8 °F /  7.1 °C 30.1in /  1018.3hPa Calm     82% 0in /  0.0mm 0 W/m2
03:39 49.8 °F /  9.9 °C 44.8 °F /  7.1 °C 30.1in /  1018.0hPa Calm     83% 0in /  0.0mm 0 W/m2
03:44 49.6 °F /  9.8 °C 44.8 °F /  7.1 °C 30.1in /  1018.0hPa Calm     83% 0in /  0.0mm 0 W/m2
03:49 49.5 °F /  9.7 °C 44.6 °F /  7 °C 30.1in /  1018.0hPa Calm     83% 0in /  0.0mm 0 W/m2
03:54 49.5 °F /  9.7 °C 44.8 °F /  7.1 °C 30.1in /  1018.0hPa Calm     84% 0in /  0.0mm 0 W/m2
03:59 49.3 °F /  9.6 °C 44.6 °F /  7 °C 30.1in /  1018.0hPa Calm     84% 0in /  0.0mm 0 W/m2
04:04 49.3 °F /  9.6 °C 44.6 °F /  7 °C 30.1in /  1018.0hPa Calm     84% 0in /  0.0mm 0 W/m2
04:09 49.1 °F /  9.5 °C 44.4 °F /  6.9 °C 30.1in /  1018.0hPa Calm     84% 0in /  0.0mm 0 W/m2
04:14 48.9 °F /  9.4 °C 44.2 °F /  6.8 °C 30.1in /  1018.0hPa Calm     84% 0in /  0.0mm 0 W/m2
04:19 48.7 °F /  9.3 °C 44.1 °F /  6.7 °C 30.1in /  1018.0hPa Calm     84% 0in /  0.0mm 0 W/m2
04:24 48.6 °F /  9.2 °C 44.2 °F /  6.8 °C 30.1in /  1018.0hPa Calm     85% 0in /  0.0mm 0 W/m2
04:29 48.6 °F /  9.2 °C 44.2 °F /  6.8 °C 30.1in /  1017.6hPa Calm     85% 0in /  0.0mm 0 W/m2
04:34 48.4 °F /  9.1 °C 44.4 °F /  6.9 °C 30.1in /  1017.6hPa Calm     86% 0in /  0.0mm 0 W/m2
04:39 48.4 °F /  9.1 °C 44.4 °F /  6.9 °C 30.1in /  1017.6hPa Calm     86% 0in /  0.0mm 0 W/m2
04:44 48.4 °F /  9.1 °C 44.8 °F /  7.1 °C 30.1in /  1017.6hPa Calm     87% 0in /  0.0mm 0 W/m2
04:49 48.4 °F /  9.1 °C 44.4 °F /  6.9 °C 30.1in /  1017.6hPa Calm     86% 0in /  0.0mm 0 W/m2
04:54 48.4 °F /  9.1 °C 44.4 °F /  6.9 °C 30.1in /  1017.6hPa Calm     86% 0in /  0.0mm 0 W/m2
04:59 48.6 °F /  9.2 °C 44.8 °F /  7.1 °C 30.1in /  1017.6hPa Calm     87% 0in /  0.0mm 0 W/m2
05:04 48.6 °F /  9.2 °C 44.6 °F /  7 °C 30.1in /  1017.6hPa Calm     86% 0in /  0.0mm 0 W/m2
05:09 48.7 °F /  9.3 °C 44.8 °F /  7.1 °C 30.1in /  1017.6hPa Calm     86% 0in /  0.0mm 0 W/m2
05:14 48.9 °F /  9.4 °C 45 °F /  7.2 °C 30.1in /  1017.6hPa Calm     86% 0in /  0.0mm 0 W/m2
05:19 49.3 °F /  9.6 °C 45 °F /  7.2 °C 30.1in /  1017.6hPa Calm     85% 0in /  0.0mm 0 W/m2
05:24 49.3 °F /  9.6 °C 45 °F /  7.2 °C 30.1in /  1017.6hPa Calm     85% 0in /  0.0mm 0 W/m2
05:29 49.5 °F /  9.7 °C 45.1 °F /  7.3 °C 30in /  1017.3hPa Calm     85% 0in /  0.0mm 0 W/m2
05:34 49.5 °F /  9.7 °C 45.1 °F /  7.3 °C 30in /  1017.3hPa Calm     85% 0in /  0.0mm 0 W/m2
05:39 49.5 °F /  9.7 °C 45.1 °F /  7.3 °C 30in /  1017.3hPa Calm     85% 0in /  0.0mm 0 W/m2
05:44 49.5 °F /  9.7 °C 45.1 °F /  7.3 °C 30in /  1017.3hPa Calm     85% 0in /  0.0mm 0 W/m2
05:49 49.5 °F /  9.7 °C 45.1 °F /  7.3 °C 30in /  1017.3hPa Calm     85% 0in /  0.0mm 0 W/m2
05:54 49.5 °F /  9.7 °C 45.1 °F /  7.3 °C 30in /  1017.3hPa Calm     85% 0in /  0.0mm 0 W/m2
05:59 49.6 °F /  9.8 °C 45.3 °F /  7.4 °C 30in /  1017.3hPa Calm   1mph /  1.6km/h 85% 0in /  0.0mm 0 W/m2
06:04 49.6 °F /  9.8 °C 45.3 °F /  7.4 °C 30in /  1017.3hPa Calm     85% 0in /  0.0mm 0 W/m2
06:09 49.6 °F /  9.8 °C 45.3 °F /  7.4 °C 30in /  1017.3hPa Calm     85% 0in /  0.0mm 0 W/m2
06:14 49.8 °F /  9.9 °C 45.5 °F /  7.5 °C 30in /  1017.3hPa Calm     85% 0in /  0.0mm 0 W/m2
06:19 49.8 °F /  9.9 °C 45.5 °F /  7.5 °C 30in /  1017.3hPa Calm     85% 0in /  0.0mm 0 W/m2
06:24 50 °F /  10 °C 45.7 °F /  7.6 °C 30in /  1017.3hPa Calm     85% 0in /  0.0mm 0 W/m2
06:29 50 °F /  10 °C 45.7 °F /  7.6 °C 30in /  1016.9hPa Calm     85% 0in /  0.0mm 0 W/m2
06:34 50.2 °F /  10.1 °C 45.9 °F /  7.7 °C 30in /  1016.9hPa Calm     85% 0in /  0.0mm 0 W/m2
06:39 50.2 °F /  10.1 °C 45.9 °F /  7.7 °C 30in /  1017.3hPa Calm     85% 0in /  0.0mm 0 W/m2
06:44 50.4 °F /  10.2 °C 46 °F /  7.8 °C 30in /  1016.9hPa Calm     85% 0in /  0.0mm 0 W/m2
06:49 50.4 °F /  10.2 °C 46 °F /  7.8 °C 30in /  1016.9hPa Calm     85% 0in /  0.0mm 0 W/m2
06:55 50.4 °F /  10.2 °C 46 °F /  7.8 °C 30in /  1017.3hPa Calm     85% 0in /  0.0mm 0 W/m2
07:00 50.5 °F /  10.3 °C 46.2 °F /  7.9 °C 30in /  1017.3hPa NW 2.9mph /  4.7km/h 3mph /  4.8km/h 85% 0in /  0.0mm 0 W/m2
07:05 50.7 °F /  10.4 °C 46 °F /  7.8 °C 30in /  1017.3hPa WSW 0.9mph /  1.4km/h 3mph /  4.8km/h 84% 0in /  0.0mm 0 W/m2
07:10 51.1 °F /  10.6 °C 46 °F /  7.8 °C 30in /  1017.3hPa WSW 0.9mph /  1.4km/h 1mph /  1.6km/h 83% 0in /  0.0mm 0 W/m2
07:15 51.1 °F /  10.6 °C 46.4 °F /  8 °C 30in /  1017.3hPa WSW 0.9mph /  1.4km/h 2mph /  3.2km/h 84% 0in /  0.0mm 0 W/m2
07:20 51.3 °F /  10.7 °C 46.6 °F /  8.1 °C 30in /  1017.3hPa Calm   1mph /  1.6km/h 84% 0in /  0.0mm 0 W/m2
07:25 51.3 °F /  10.7 °C 46.6 °F /  8.1 °C 30in /  1016.9hPa Calm     84% 0in /  0.0mm 5 W/m2
07:30 51.4 °F /  10.8 °C 46.8 °F /  8.2 °C 30in /  1017.3hPa Calm     84% 0in /  0.0mm 5 W/m2
07:35 51.4 °F /  10.8 °C 46.8 °F /  8.2 °C 30in /  1017.3hPa Calm     84% 0in /  0.0mm 5 W/m2
07:40 51.4 °F /  10.8 °C 46.8 °F /  8.2 °C 30in /  1017.3hPa Calm     84% 0in /  0.0mm 7 W/m2
07:45 51.8 °F /  11 °C 47.1 °F /  8.4 °C 30in /  1017.3hPa Calm     84% 0in /  0.0mm 12 W/m2
07:50 52 °F /  11.1 °C 46.9 °F /  8.3 °C 30in /  1016.9hPa Calm   1mph /  1.6km/h 83% 0in /  0.0mm 18 W/m2
07:55 52.2 °F /  11.2 °C 46.8 °F /  8.2 °C 30in /  1017.3hPa WSW 0.9mph /  1.4km/h 2mph /  3.2km/h 82% 0in /  0.0mm 21 W/m2
08:00 52.2 °F /  11.2 °C 46.8 °F /  8.2 °C 30in /  1017.3hPa WSW 0.9mph /  1.4km/h 2mph /  3.2km/h 82% 0in /  0.0mm 21 W/m2
08:05 52.2 °F /  11.2 °C 46.8 °F /  8.2 °C 30in /  1017.3hPa WSW 0.9mph /  1.4km/h 1mph /  1.6km/h 82% 0in /  0.0mm 18 W/m2
08:10 52.3 °F /  11.3 °C 47.3 °F /  8.5 °C 30in /  1017.3hPa Calm   2mph /  3.2km/h 83% 0in /  0.0mm 16 W/m2
08:15 52.3 °F /  11.3 °C 47.3 °F /  8.5 °C 30in /  1017.3hPa Calm     83% 0in /  0.0mm 18 W/m2
08:20 52.5 °F /  11.4 °C 47.5 °F /  8.6 °C 30in /  1016.9hPa Calm   2mph /  3.2km/h 83% 0in /  0.0mm 19 W/m2
08:25 52.9 °F /  11.6 °C 47.8 °F /  8.8 °C 30in /  1017.3hPa Calm   1mph /  1.6km/h 83% 0in /  0.0mm 21 W/m2
08:30 52.9 °F /  11.6 °C 47.8 °F /  8.8 °C 30in /  1017.3hPa Calm     83% 0in /  0.0mm 28 W/m2
08:35 53.1 °F /  11.7 °C 47.7 °F /  8.7 °C 30in /  1017.3hPa West 2mph /  3.2km/h 2mph /  3.2km/h 82% 0in /  0.0mm 35 W/m2
08:40 53.2 °F /  11.8 °C 47.8 °F /  8.8 °C 30in /  1017.3hPa West 0.9mph /  1.4km/h 2mph /  3.2km/h 82% 0in /  0.0mm 37 W/m2
08:45 53.2 °F /  11.8 °C 47.5 °F /  8.6 °C 30in /  1017.3hPa WNW 0.9mph /  1.4km/h 4mph /  6.4km/h 81% 0in /  0.0mm 39 W/m2
08:50 53.4 °F /  11.9 °C 47.7 °F /  8.7 °C 30in /  1017.3hPa West 0.9mph /  1.4km/h 1mph /  1.6km/h 81% 0in /  0.0mm 35 W/m2
08:55 53.6 °F /  12 °C 47.7 °F /  8.7 °C 30in /  1017.3hPa Calm   1mph /  1.6km/h 80% 0in /  0.0mm 42 W/m2
09:00 53.8 °F /  12.1 °C 48 °F /  8.9 °C 30in /  1016.9hPa Calm   1mph /  1.6km/h 81% 0in /  0.0mm 49 W/m2
09:05 54 °F /  12.2 °C 48.6 °F /  9.2 °C 30in /  1016.9hPa Calm   1mph /  1.6km/h 82% 0in /  0.0mm 56 W/m2
09:10 54 °F /  12.2 °C 48.6 °F /  9.2 °C 30in /  1016.9hPa Calm     82% 0in /  0.0mm 67 W/m2
09:15 54.1 °F /  12.3 °C 48.7 °F /  9.3 °C 30in /  1016.9hPa ESE 2mph /  3.2km/h 3mph /  4.8km/h 82% 0in /  0.0mm 58 W/m2
09:20 54.3 °F /  12.4 °C 49.3 °F /  9.6 °C 30in /  1017.3hPa ESE 4mph /  6.4km/h 4mph /  6.4km/h 83% 0in /  0.0mm 54 W/m2
09:25 54.3 °F /  12.4 °C 48.9 °F /  9.4 °C 30in /  1016.9hPa Calm     82% 0in /  0.0mm 54 W/m2
09:31 54.3 °F /  12.4 °C 48.9 °F /  9.4 °C 30in /  1016.9hPa Calm   1mph /  1.6km/h 82% 0in /  0.0mm 51 W/m2
09:36 54.7 °F /  12.6 °C 49.3 °F /  9.6 °C 30in /  1016.9hPa NE 2mph /  3.2km/h 3mph /  4.8km/h 82% 0in /  0.0mm 46 W/m2
09:41 54.7 °F /  12.6 °C 49.3 °F /  9.6 °C 30in /  1016.9hPa ENE 0.9mph /  1.4km/h 1mph /  1.6km/h 82% 0in /  0.0mm 49 W/m2
09:46 54.7 °F /  12.6 °C 49.3 °F /  9.6 °C 30in /  1016.9hPa Calm     82% 0in /  0.0mm 62 W/m2
09:51 54.7 °F /  12.6 °C 49.3 °F /  9.6 °C 30in /  1016.9hPa Calm     82% 0in /  0.0mm 72 W/m2
09:56 54.9 °F /  12.7 °C 49.8 °F /  9.9 °C 30in /  1016.6hPa Calm   2mph /  3.2km/h 83% 0in /  0.0mm 77 W/m2
10:01 54.9 °F /  12.7 °C 49.8 °F /  9.9 °C 30in /  1016.6hPa Calm     83% 0in /  0.0mm 77 W/m2
10:06 55 °F /  12.8 °C 50 °F /  10 °C 30in /  1016.6hPa ENE 0.9mph /  1.4km/h 2mph /  3.2km/h 83% 0in /  0.0mm 74 W/m2
10:11 55.2 °F /  12.9 °C 50.2 °F /  10.1 °C 30in /  1016.6hPa East 2.9mph /  4.7km/h 3mph /  4.8km/h 83% 0in /  0.0mm 79 W/m2
10:16 55.6 °F /  13.1 °C 50.2 °F /  10.1 °C 30in /  1016.6hPa East 2mph /  3.2km/h 2mph /  3.2km/h 82% 0in /  0.0mm 88 W/m2
10:21 55.6 °F /  13.1 °C 49.5 °F /  9.7 °C 30in /  1016.6hPa Calm   3mph /  4.8km/h 80% 0in /  0.0mm 90 W/m2
10:26 55.8 °F /  13.2 °C 48.9 °F /  9.4 °C 30in /  1016.6hPa Calm     78% 0in /  0.0mm 90 W/m2
10:31 55.9 °F /  13.3 °C 49.1 °F /  9.5 °C 30in /  1016.6hPa Calm   1mph /  1.6km/h 78% 0in /  0.0mm 105 W/m2
10:36 56.1 °F /  13.4 °C 48.9 °F /  9.4 °C 30in /  1016.6hPa Calm     77% 0in /  0.0mm 141 W/m2
10:41 56.5 °F /  13.6 °C 49.3 °F /  9.6 °C 30in /  1016.6hPa Calm   2mph /  3.2km/h 77% 0in /  0.0mm 183 W/m2
10:46 56.7 °F /  13.7 °C 49.5 °F /  9.7 °C 30in /  1016.6hPa ENE 0.9mph /  1.4km/h 3mph /  4.8km/h 77% 0in /  0.0mm 229 W/m2
10:51 57 °F /  13.9 °C 49.5 °F /  9.7 °C 30in /  1016.6hPa ENE 2mph /  3.2km/h 2mph /  3.2km/h 76% 0in /  0.0mm 248 W/m2
10:56 57.4 °F /  14.1 °C 48.4 °F /  9.1 °C 30in /  1016.6hPa Calm   3mph /  4.8km/h 72% 0in /  0.0mm 253 W/m2
11:01 57.6 °F /  14.2 °C 48.2 °F /  9 °C 30in /  1016.6hPa East 0.9mph /  1.4km/h 1mph /  1.6km/h 71% 0in /  0.0mm 250 W/m2
11:06 57.9 °F /  14.4 °C 49.3 °F /  9.6 °C 30in /  1016.6hPa East 0.9mph /  1.4km/h 1mph /  1.6km/h 73% 0in /  0.0mm 271 W/m2
11:11 58.5 °F /  14.7 °C 49.5 °F /  9.7 °C 30in /  1016.6hPa Calm   1mph /  1.6km/h 72% 0in /  0.0mm 297 W/m2
11:16 58.6 °F /  14.8 °C 50 °F /  10 °C 30in /  1016.6hPa Calm   2mph /  3.2km/h 73% 0in /  0.0mm 308 W/m2
11:21 59.2 °F /  15.1 °C 50.9 °F /  10.5 °C 30in /  1016.6hPa Calm   1mph /  1.6km/h 74% 0in /  0.0mm 376 W/m2
11:26 59.5 °F /  15.3 °C 50.5 °F /  10.3 °C 30in /  1016.6hPa Calm   1mph /  1.6km/h 72% 0in /  0.0mm 480 W/m2
11:31 60.3 °F /  15.7 °C 50.4 °F /  10.2 °C 30in /  1016.6hPa East 2mph /  3.2km/h 2mph /  3.2km/h 70% 0in /  0.0mm 673 W/m2
11:36 61 °F /  16.1 °C 48.7 °F /  9.3 °C 30in /  1016.3hPa ENE 2mph /  3.2km/h 2mph /  3.2km/h 64% 0in /  0.0mm 673 W/m2
11:41 62.1 °F /  16.7 °C 49.3 °F /  9.6 °C 30in /  1016.3hPa ENE 2mph /  3.2km/h 2mph /  3.2km/h 63% 0in /  0.0mm 784 W/m2
11:46 63 °F /  17.2 °C 50.2 °F /  10.1 °C 30in /  1016.3hPa ENE 2mph /  3.2km/h 3mph /  4.8km/h 63% 0in /  0.0mm 403 W/m2
11:51 63.7 °F /  17.6 °C 49.1 °F /  9.5 °C 30in /  1016.3hPa NNW 0.9mph /  1.4km/h 2mph /  3.2km/h 59% 0in /  0.0mm 527 W/m2
11:56 64 °F /  17.8 °C 48.9 °F /  9.4 °C 30in /  1016.3hPa ENE 0.9mph /  1.4km/h 3mph /  4.8km/h 58% 0in /  0.0mm 547 W/m2
12:01 64.4 °F /  18 °C 50.2 °F /  10.1 °C 30in /  1016.3hPa East 0.9mph /  1.4km/h 2mph /  3.2km/h 60% 0in /  0.0mm 336 W/m2
12:06 64.8 °F /  18.2 °C 49.1 °F /  9.5 °C 30in /  1015.9hPa ENE 2mph /  3.2km/h 3mph /  4.8km/h 57% 0in /  0.0mm 287 W/m2
12:11 65.1 °F /  18.4 °C 49.5 °F /  9.7 °C 30in /  1015.9hPa ENE 2mph /  3.2km/h 3mph /  4.8km/h 57% 0in /  0.0mm 761 W/m2
12:16 65.5 °F /  18.6 °C 49.3 °F /  9.6 °C 30in /  1015.9hPa Calm   2mph /  3.2km/h 56% 0in /  0.0mm 733 W/m2
12:22 65.7 °F /  18.7 °C 49.5 °F /  9.7 °C 30in /  1015.6hPa ESE 2.9mph /  4.7km/h 4mph /  6.4km/h 56% 0in /  0.0mm 169 W/m2
12:27 65.7 °F /  18.7 °C 49.1 °F /  9.5 °C 30in /  1015.6hPa East 0.9mph /  1.4km/h 3mph /  4.8km/h 55% 0in /  0.0mm 163 W/m2
12:32 65.7 °F /  18.7 °C 48.6 °F /  9.2 °C 30in /  1015.6hPa East 2mph /  3.2km/h 4mph /  6.4km/h 54% 0in /  0.0mm 151 W/m2
12:37 65.5 °F /  18.6 °C 49.3 °F /  9.6 °C 30in /  1015.6hPa East 2.9mph /  4.7km/h 3mph /  4.8km/h 56% 0in /  0.0mm 728 W/m2
12:42 66 °F /  18.9 °C 49.8 °F /  9.9 °C 30in /  1015.6hPa East 2.9mph /  4.7km/h 4mph /  6.4km/h 56% 0in /  0.0mm 694 W/m2
12:47 66.7 °F /  19.3 °C 50.5 °F /  10.3 °C 30in /  1015.2hPa ENE 4mph /  6.4km/h 4mph /  6.4km/h 56% 0in /  0.0mm 680 W/m2
12:52 67.3 °F /  19.6 °C 50.5 °F /  10.3 °C 30in /  1015.2hPa ESE 2mph /  3.2km/h 4mph /  6.4km/h 55% 0in /  0.0mm 675 W/m2
12:57 68 °F /  20 °C 49.6 °F /  9.8 °C 30in /  1015.2hPa ESE 2.9mph /  4.7km/h 5mph /  8km/h 52% 0in /  0.0mm 680 W/m2
13:02 68.5 °F /  20.3 °C 49.1 °F /  9.5 °C 30in /  1015.2hPa NE 2.9mph /  4.7km/h 4mph /  6.4km/h 50% 0in /  0.0mm 680 W/m2
13:07 68.7 °F /  20.4 °C 49.3 °F /  9.6 °C 30in /  1015.2hPa ENE 4mph /  6.4km/h 7mph /  11.3km/h 50% 0in /  0.0mm 679 W/m2
13:12 68.5 °F /  20.3 °C 48.6 °F /  9.2 °C 30in /  1015.2hPa ESE 0.9mph /  1.4km/h 2mph /  3.2km/h 49% 0in /  0.0mm 686 W/m2
13:17 69.1 °F /  20.6 °C 49.1 °F /  9.5 °C 30in /  1014.9hPa ENE 2mph /  3.2km/h 6mph /  9.7km/h 49% 0in /  0.0mm 680 W/m2
13:22 69.4 °F /  20.8 °C 50 °F /  10 °C 30in /  1014.9hPa ENE 0.9mph /  1.4km/h 8mph /  12.9km/h 50% 0in /  0.0mm 701 W/m2
13:27 69.4 °F /  20.8 °C 48.4 °F /  9.1 °C 30in /  1014.9hPa ENE 0.9mph /  1.4km/h 3mph /  4.8km/h 47% 0in /  0.0mm 701 W/m2
13:32 69.6 °F /  20.9 °C 48.6 °F /  9.2 °C 30in /  1014.6hPa NE 4mph /  6.4km/h 8mph /  12.9km/h 47% 0in /  0.0mm 722 W/m2
13:37 70.2 °F /  21.2 °C 48.4 °F /  9.1 °C 30in /  1014.6hPa ENE 2mph /  3.2km/h 3mph /  4.8km/h 46% 0in /  0.0mm 726 W/m2
13:42 70.3 °F /  21.3 °C 46.2 °F /  7.9 °C 30in /  1014.6hPa ENE 2mph /  3.2km/h 3mph /  4.8km/h 42% 0in /  0.0mm 729 W/m2
13:47 70.9 °F /  21.6 °C 46 °F /  7.8 °C 30in /  1014.6hPa East 2mph /  3.2km/h 6mph /  9.7km/h 41% 0in /  0.0mm 578 W/m2
13:52 71.2 °F /  21.8 °C 46.9 °F /  8.3 °C 30in /  1014.6hPa ESE 2mph /  3.2km/h 3mph /  4.8km/h 42% 0in /  0.0mm 717 W/m2
13:57 71.2 °F /  21.8 °C 45 °F /  7.2 °C 30in /  1014.6hPa Calm   3mph /  4.8km/h 39% 0in /  0.0mm 102 W/m2
14:02 71.2 °F /  21.8 °C 46.9 °F /  8.3 °C 30in /  1014.2hPa East 0.9mph /  1.4km/h 3mph /  4.8km/h 42% 0in /  0.0mm 109 W/m2
14:07 71.1 °F /  21.7 °C 48 °F /  8.9 °C 30in /  1014.2hPa Calm   1mph /  1.6km/h 44% 0in /  0.0mm 127 W/m2
14:12 71.1 °F /  21.7 °C 44.8 °F /  7.1 °C 30in /  1014.2hPa East 2mph /  3.2km/h 4mph /  6.4km/h 39% 0in /  0.0mm 142 W/m2
14:17 71.4 °F /  21.9 °C 46.6 °F /  8.1 °C 30in /  1014.2hPa East 2mph /  3.2km/h 3mph /  4.8km/h 41% 0in /  0.0mm 693 W/m2
14:22 72 °F /  22.2 °C 46.9 °F /  8.3 °C 29.9in /  1013.9hPa ENE 2mph /  3.2km/h 3mph /  4.8km/h 41% 0in /  0.0mm 700 W/m2
14:27 72.5 °F /  22.5 °C 46.2 °F /  7.9 °C 29.9in /  1013.9hPa Calm   2mph /  3.2km/h 39% 0in /  0.0mm 710 W/m2
14:32 73 °F /  22.8 °C 45.1 °F /  7.3 °C 29.9in /  1013.9hPa East 0.9mph /  1.4km/h 3mph /  4.8km/h 37% 0in /  0.0mm 724 W/m2
14:37 73.4 °F /  23 °C 45.5 °F /  7.5 °C 29.9in /  1013.9hPa ENE 2mph /  3.2km/h 4mph /  6.4km/h 37% 0in /  0.0mm 740 W/m2
14:42 73.4 °F /  23 °C 44.8 °F /  7.1 °C 29.9in /  1013.9hPa East 2mph /  3.2km/h 5mph /  8km/h 36% 0in /  0.0mm 751 W/m2
14:47 73.6 °F /  23.1 °C 44.2 °F /  6.8 °C 29.9in /  1013.5hPa ENE 4mph /  6.4km/h 6mph /  9.7km/h 35% 0in /  0.0mm 759 W/m2
14:52 73.6 °F /  23.1 °C 43.5 °F /  6.4 °C 29.9in /  1013.5hPa West 0.9mph /  1.4km/h 2mph /  3.2km/h 34% 0in /  0.0mm 738 W/m2
14:57 74.1 °F /  23.4 °C 43.2 °F /  6.2 °C 29.9in /  1013.5hPa North 2mph /  3.2km/h 5mph /  8km/h 33% 0in /  0.0mm 751 W/m2
15:02 74.7 °F /  23.7 °C 43.7 °F /  6.5 °C 29.9in /  1013.5hPa North 2mph /  3.2km/h 2mph /  3.2km/h 33% 0in /  0.0mm 777 W/m2
15:07 74.5 °F /  23.6 °C 41.9 °F /  5.5 °C 29.9in /  1013.5hPa West 4mph /  6.4km/h 8mph /  12.9km/h 31% 0in /  0.0mm 199 W/m2
15:12 73.9 °F /  23.3 °C 43 °F /  6.1 °C 29.9in /  1013.5hPa ESE 0.9mph /  1.4km/h 3mph /  4.8km/h 33% 0in /  0.0mm 715 W/m2
15:17 73.9 °F /  23.3 °C 42.3 °F /  5.7 °C 29.9in /  1013.5hPa West 0.9mph /  1.4km/h 8mph /  12.9km/h 32% 0in /  0.0mm 756 W/m2
15:22 73.9 °F /  23.3 °C 39.7 °F /  4.3 °C 29.9in /  1013.5hPa South 0.9mph /  1.4km/h 2mph /  3.2km/h 29% 0in /  0.0mm 227 W/m2
15:27 73.8 °F /  23.2 °C 39.6 °F /  4.2 °C 29.9in /  1013.2hPa ESE 0.9mph /  1.4km/h 4mph /  6.4km/h 29% 0in /  0.0mm 213 W/m2
15:32 73.8 °F /  23.2 °C 39.6 °F /  4.2 °C 29.9in /  1013.2hPa West 2.9mph /  4.7km/h 9mph /  14.5km/h 29% 0in /  0.0mm 721 W/m2
15:37 73.9 °F /  23.3 °C 39.7 °F /  4.3 °C 29.9in /  1013.2hPa West 6mph /  9.7km/h 11mph /  17.7km/h 29% 0in /  0.0mm 726 W/m2
15:42 73.9 °F /  23.3 °C 38.8 °F /  3.8 °C 29.9in /  1013.2hPa WNW 2.9mph /  4.7km/h 4mph /  6.4km/h 28% 0in /  0.0mm 223 W/m2
15:47 73.2 °F /  22.9 °C 39.9 °F /  4.4 °C 29.9in /  1013.2hPa West 2.9mph /  4.7km/h 7mph /  11.3km/h 30% 0in /  0.0mm 225 W/m2
15:52 73 °F /  22.8 °C 40.6 °F /  4.8 °C 29.9in /  1012.9hPa NNW 2mph /  3.2km/h 7mph /  11.3km/h 31% 0in /  0.0mm 696 W/m2
15:57 73.8 °F /  23.2 °C 41.2 °F /  5.1 °C 29.9in /  1012.9hPa WNW 4mph /  6.4km/h 8mph /  12.9km/h 31% 0in /  0.0mm 682 W/m2
16:02 73.9 °F /  23.3 °C 40.5 °F /  4.7 °C 29.9in /  1012.9hPa SW 2mph /  3.2km/h 2mph /  3.2km/h 30% 0in /  0.0mm 230 W/m2
16:07 73.8 °F /  23.2 °C 40.5 °F /  4.7 °C 29.9in /  1012.9hPa West 2mph /  3.2km/h 11mph /  17.7km/h 30% 0in /  0.0mm 297 W/m2
16:12 73.9 °F /  23.3 °C 39.7 °F /  4.3 °C 29.9in /  1012.9hPa West 4mph /  6.4km/h 8mph /  12.9km/h 29% 0in /  0.0mm 587 W/m2
16:17 73.9 °F /  23.3 °C 42.3 °F /  5.7 °C 29.9in /  1012.9hPa West 4mph /  6.4km/h 7mph /  11.3km/h 32% 0in /  0.0mm 557 W/m2
16:22 74.5 °F /  23.6 °C 41.9 °F /  5.5 °C 29.9in /  1012.9hPa NNW 4mph /  6.4km/h 10mph /  16.1km/h 31% 0in /  0.0mm 557 W/m2
16:27 74.5 °F /  23.6 °C 41 °F /  5 °C 29.9in /  1012.5hPa NNW 2mph /  3.2km/h 7mph /  11.3km/h 30% 0in /  0.0mm 522 W/m2
16:32 74.5 °F /  23.6 °C 41 °F /  5 °C 29.9in /  1012.5hPa West 6.9mph /  11.1km/h 10mph /  16.1km/h 30% 0in /  0.0mm 515 W/m2
16:37 74.5 °F /  23.6 °C 40.1 °F /  4.5 °C 29.9in /  1012.5hPa West 4mph /  6.4km/h 6mph /  9.7km/h 29% 0in /  0.0mm 95 W/m2
16:42 73.9 °F /  23.3 °C 39.7 °F /  4.3 °C 29.9in /  1012.5hPa NW 0.9mph /  1.4km/h 3mph /  4.8km/h 29% 0in /  0.0mm 105 W/m2
16:47 73.9 °F /  23.3 °C 40.5 °F /  4.7 °C 29.9in /  1012.2hPa Calm   4mph /  6.4km/h 30% 0in /  0.0mm 387 W/m2
16:52 74.3 °F /  23.5 °C 39.9 °F /  4.4 °C 29.9in /  1012.2hPa East 0.9mph /  1.4km/h 3mph /  4.8km/h 29% 0in /  0.0mm 174 W/m2
16:57 74.7 °F /  23.7 °C 41.2 °F /  5.1 °C 29.9in /  1012.2hPa WNW 4mph /  6.4km/h 5mph /  8km/h 30% 0in /  0.0mm 461 W/m2
17:02 75 °F /  23.9 °C 39.7 °F /  4.3 °C 29.9in /  1012.2hPa NW 0.9mph /  1.4km/h 5mph /  8km/h 28% 0in /  0.0mm 464 W/m2
17:08 75 °F /  23.9 °C 42.3 °F /  5.7 °C 29.9in /  1012.2hPa NNW 2mph /  3.2km/h 4mph /  6.4km/h 31% 0in /  0.0mm 471 W/m2
17:13 75.2 °F /  24 °C 40.8 °F /  4.9 °C 29.9in /  1012.2hPa SW 2mph /  3.2km/h 4mph /  6.4km/h 29% 0in /  0.0mm 448 W/m2
17:18 75.4 °F /  24.1 °C 41.7 °F /  5.4 °C 29.9in /  1011.9hPa West 4mph /  6.4km/h 4mph /  6.4km/h 30% 0in /  0.0mm 429 W/m2
17:23 75.7 °F /  24.3 °C 41.2 °F /  5.1 °C 29.9in /  1011.9hPa WNW 2.9mph /  4.7km/h 7mph /  11.3km/h 29% 0in /  0.0mm 413 W/m2
17:28 75.6 °F /  24.2 °C 40.1 °F /  4.5 °C 29.9in /  1011.9hPa WNW 4.9mph /  7.9km/h 5mph /  8km/h 28% 0in /  0.0mm 415 W/m2
17:33 75.6 °F /  24.2 °C 41.9 °F /  5.5 °C 29.9in /  1011.9hPa West 2.9mph /  4.7km/h 7mph /  11.3km/h 30% 0in /  0.0mm 413 W/m2
17:38 75.2 °F /  24 °C 40.8 °F /  4.9 °C 29.9in /  1011.9hPa WSW 4mph /  6.4km/h 7mph /  11.3km/h 29% 0in /  0.0mm 396 W/m2
17:43 74.8 °F /  23.8 °C 39.6 °F /  4.2 °C 29.9in /  1011.9hPa WSW 6mph /  9.7km/h 7mph /  11.3km/h 28% 0in /  0.0mm 364 W/m2
17:48 74.5 °F /  23.6 °C 40.1 °F /  4.5 °C 29.9in /  1011.9hPa Calm   4mph /  6.4km/h 29% 0in /  0.0mm 334 W/m2
17:53 74.1 °F /  23.4 °C 39.9 °F /  4.4 °C 29.9in /  1011.9hPa WNW 2.9mph /  4.7km/h 6mph /  9.7km/h 29% 0in /  0.0mm 234 W/m2
17:58 73.9 °F /  23.3 °C 41.4 °F /  5.2 °C 29.9in /  1011.9hPa West 0.9mph /  1.4km/h 2mph /  3.2km/h 31% 0in /  0.0mm 330 W/m2
18:03 74.1 °F /  23.4 °C 40.6 °F /  4.8 °C 29.9in /  1011.9hPa North 2mph /  3.2km/h 6mph /  9.7km/h 30% 0in /  0.0mm 327 W/m2
18:08 74.5 °F /  23.6 °C 41.9 °F /  5.5 °C 29.9in /  1011.9hPa West 2mph /  3.2km/h 5mph /  8km/h 31% 0in /  0.0mm 332 W/m2
18:13 74.5 °F /  23.6 °C 40.1 °F /  4.5 °C 29.9in /  1011.9hPa WNW 2mph /  3.2km/h 7mph /  11.3km/h 29% 0in /  0.0mm 332 W/m2
18:18 74.3 °F /  23.5 °C 39.9 °F /  4.4 °C 29.9in /  1011.9hPa WNW 2.9mph /  4.7km/h 7mph /  11.3km/h 29% 0in /  0.0mm 323 W/m2
18:23 74.1 °F /  23.4 °C 40.6 °F /  4.8 °C 29.9in /  1011.9hPa West 4mph /  6.4km/h 4mph /  6.4km/h 30% 0in /  0.0mm 313 W/m2
18:28 74.1 °F /  23.4 °C 40.6 °F /  4.8 °C 29.9in /  1011.9hPa WSW 2.9mph /  4.7km/h 10mph /  16.1km/h 30% 0in /  0.0mm 278 W/m2
18:33 74.1 °F /  23.4 °C 39.9 °F /  4.4 °C 29.9in /  1011.9hPa NNW 0.9mph /  1.4km/h 2mph /  3.2km/h 29% 0in /  0.0mm 253 W/m2
18:38 74.1 °F /  23.4 °C 39.9 °F /  4.4 °C 29.9in /  1011.9hPa WNW 2mph /  3.2km/h 10mph /  16.1km/h 29% 0in /  0.0mm 214 W/m2
18:43 74.1 °F /  23.4 °C 40.6 °F /  4.8 °C 29.9in /  1011.9hPa West 2mph /  3.2km/h 2mph /  3.2km/h 30% 0in /  0.0mm 197 W/m2
18:48 73.9 °F /  23.3 °C 40.5 °F /  4.7 °C 29.9in /  1011.9hPa West 0.9mph /  1.4km/h 7mph /  11.3km/h 30% 0in /  0.0mm 199 W/m2
18:53 73.9 °F /  23.3 °C 39.7 °F /  4.3 °C 29.9in /  1011.9hPa WNW 2mph /  3.2km/h 3mph /  4.8km/h 29% 0in /  0.0mm 183 W/m2
18:58 73.9 °F /  23.3 °C 41.4 °F /  5.2 °C 29.9in /  1011.9hPa West 2mph /  3.2km/h 3mph /  4.8km/h 31% 0in /  0.0mm 158 W/m2
19:03 73.9 °F /  23.3 °C 39.7 °F /  4.3 °C 29.9in /  1011.5hPa West 2.9mph /  4.7km/h 3mph /  4.8km/h 29% 0in /  0.0mm 135 W/m2
19:08 73.8 °F /  23.2 °C 40.5 °F /  4.7 °C 29.9in /  1011.5hPa NW 2mph /  3.2km/h 4mph /  6.4km/h 30% 0in /  0.0mm 118 W/m2
19:13 73.4 °F /  23 °C 41.7 °F /  5.4 °C 29.9in /  1011.5hPa WNW 0.9mph /  1.4km/h 3mph /  4.8km/h 32% 0in /  0.0mm 102 W/m2
19:18 73 °F /  22.8 °C 40.6 °F /  4.8 °C 29.9in /  1011.5hPa West 0.9mph /  1.4km/h 4mph /  6.4km/h 31% 0in /  0.0mm 90 W/m2
19:23 72.9 °F /  22.7 °C 43.5 °F /  6.4 °C 29.9in /  1011.5hPa WSW 2.9mph /  4.7km/h 4mph /  6.4km/h 35% 0in /  0.0mm 81 W/m2
19:28 72.5 °F /  22.5 °C 44.8 °F /  7.1 °C 29.9in /  1011.5hPa Calm   1mph /  1.6km/h 37% 0in /  0.0mm 74 W/m2
19:33 72 °F /  22.2 °C 45.7 °F /  7.6 °C 29.9in /  1011.5hPa Calm   3mph /  4.8km/h 39% 0in /  0.0mm 67 W/m2
19:38 71.4 °F /  21.9 °C 45.9 °F /  7.7 °C 29.9in /  1011.5hPa WSW 0.9mph /  1.4km/h 1mph /  1.6km/h 40% 0in /  0.0mm 58 W/m2
19:43 71.1 °F /  21.7 °C 46.2 °F /  7.9 °C 29.9in /  1011.5hPa WSW 0.9mph /  1.4km/h 2mph /  3.2km/h 41% 0in /  0.0mm 51 W/m2
19:48 70.3 °F /  21.3 °C 46.8 °F /  8.2 °C 29.9in /  1011.5hPa WSW 0.9mph /  1.4km/h 2mph /  3.2km/h 43% 0in /  0.0mm 46 W/m2
19:53 70 °F /  21.1 °C 46.4 °F /  8 °C 29.9in /  1011.5hPa WSW 0.9mph /  1.4km/h 2mph /  3.2km/h 43% 0in /  0.0mm 40 W/m2
19:58 69.4 °F /  20.8 °C 46.6 °F /  8.1 °C 29.9in /  1011.5hPa WSW 0.9mph /  1.4km/h 2mph /  3.2km/h 44% 0in /  0.0mm 33 W/m2
20:03 68.5 °F /  20.3 °C 44.6 °F /  7 °C 29.9in /  1011.9hPa WSW 0.9mph /  1.4km/h 2mph /  3.2km/h 42% 0in /  0.0mm 25 W/m2
20:08 67.6 °F /  19.8 °C 43.7 °F /  6.5 °C 29.9in /  1011.9hPa WSW 0.9mph /  1.4km/h 1mph /  1.6km/h 42% 0in /  0.0mm 18 W/m2
20:13 67.1 °F /  19.5 °C 43.9 °F /  6.6 °C 29.9in /  1011.9hPa ESE 10.1mph /  16.3km/h 10mph /  16.1km/h 43% 0in /  0.0mm 11 W/m2
20:18 66.9 °F /  19.4 °C 44.2 °F /  6.8 °C 29.9in /  1011.9hPa East 0.9mph /  1.4km/h 3mph /  4.8km/h 44% 0in /  0.0mm 7 W/m2
20:23 66.7 °F /  19.3 °C 44.1 °F /  6.7 °C 29.9in /  1011.9hPa NW 10mph /  16.1km/h 10mph /  16.1km/h 44% 0in /  0.0mm 0 W/m2
20:28 66.7 °F /  19.3 °C 45.3 °F /  7.4 °C 29.9in /  1011.9hPa Calm   2mph /  3.2km/h 46% 0in /  0.0mm 0 W/m2
20:33 66.2 °F /  19 °C 45.3 °F /  7.4 °C 29.9in /  1011.9hPa WSW 0.9mph /  1.4km/h 2mph /  3.2km/h 47% 0in /  0.0mm 0 W/m2
20:38 65.5 °F /  18.6 °C 44.2 °F /  6.8 °C 29.9in /  1011.9hPa WNW 0.9mph /  1.4km/h 4mph /  6.4km/h 46% 0in /  0.0mm 0 W/m2
20:43 65.1 °F /  18.4 °C 45 °F /  7.2 °C 29.9in /  1011.9hPa Calm   1mph /  1.6km/h 48% 0in /  0.0mm 0 W/m2
20:48 64.6 °F /  18.1 °C 46 °F /  7.8 °C 29.9in /  1011.9hPa WNW 0.9mph /  1.4km/h 3mph /  4.8km/h 51% 0in /  0.0mm 0 W/m2
20:53 63.9 °F /  17.7 °C 45.9 °F /  7.7 °C 29.9in /  1011.9hPa Calm   2mph /  3.2km/h 52% 0in /  0.0mm 0 W/m2
20:58 63 °F /  17.2 °C 45.1 °F /  7.3 °C 29.9in /  1011.9hPa ESE 0.9mph /  1.4km/h 2mph /  3.2km/h 52% 0in /  0.0mm 0 W/m2
21:03 62.2 °F /  16.8 °C 45.3 °F /  7.4 °C 29.9in /  1011.9hPa Calm   2mph /  3.2km/h 54% 0in /  0.0mm 0 W/m2
21:08 61.9 °F /  16.6 °C 45.5 °F /  7.5 °C 29.9in /  1011.9hPa Calm   1mph /  1.6km/h 55% 0in /  0.0mm 0 W/m2
21:13 61.2 °F /  16.2 °C 45.3 °F /  7.4 °C 29.9in /  1011.9hPa Calm   2mph /  3.2km/h 56% 0in /  0.0mm 0 W/m2
21:18 60.6 °F /  15.9 °C 45.7 °F /  7.6 °C 29.9in /  1011.9hPa Calm   1mph /  1.6km/h 58% 0in /  0.0mm 0 W/m2
21:23 60.3 °F /  15.7 °C 45.9 °F /  7.7 °C 29.9in /  1011.9hPa Calm   1mph /  1.6km/h 59% 0in /  0.0mm 0 W/m2
21:28 59.7 °F /  15.4 °C 45.9 °F /  7.7 °C 29.9in /  1012.2hPa SE 0.9mph /  1.4km/h 2mph /  3.2km/h 60% 0in /  0.0mm 0 W/m2
21:33 59.2 °F /  15.1 °C 45.3 °F /  7.4 °C 29.9in /  1012.2hPa SE 0.9mph /  1.4km/h 2mph /  3.2km/h 60% 0in /  0.0mm 0 W/m2
21:38 58.6 °F /  14.8 °C 45.3 °F /  7.4 °C 29.9in /  1012.2hPa Calm   1mph /  1.6km/h 61% 0in /  0.0mm 0 W/m2
21:43 58.3 °F /  14.6 °C 45.3 °F /  7.4 °C 29.9in /  1012.2hPa Calm   1mph /  1.6km/h 62% 0in /  0.0mm 0 W/m2
21:48 57.7 °F /  14.3 °C 45.3 °F /  7.4 °C 29.9in /  1012.2hPa Calm     63% 0in /  0.0mm 0 W/m2
21:53 57.6 °F /  14.2 °C 45.1 °F /  7.3 °C 29.9in /  1012.2hPa Calm     63% 0in /  0.0mm 0 W/m2
21:58 57.4 °F /  14.1 °C 45.3 °F /  7.4 °C 29.9in /  1012.2hPa SE 0.9mph /  1.4km/h 2mph /  3.2km/h 64% 0in /  0.0mm 0 W/m2
22:03 57 °F /  13.9 °C 45 °F /  7.2 °C 29.9in /  1012.2hPa Calm     64% 0in /  0.0mm 0 W/m2
22:08 56.8 °F /  13.8 °C 44.8 °F /  7.1 °C 29.9in /  1012.2hPa WSW 0.9mph /  1.4km/h 2mph /  3.2km/h 64% 0in /  0.0mm 0 W/m2
22:13 56.7 °F /  13.7 °C 45 °F /  7.2 °C 29.9in /  1012.2hPa Calm     65% 0in /  0.0mm 0 W/m2
22:18 56.5 °F /  13.6 °C 44.8 °F /  7.1 °C 29.9in /  1012.2hPa Calm   2mph /  3.2km/h 65% 0in /  0.0mm 0 W/m2
22:23 56.1 °F /  13.4 °C 45 °F /  7.2 °C 29.9in /  1012.2hPa Calm     66% 0in /  0.0mm 0 W/m2
22:28 55.9 °F /  13.3 °C 44.4 °F /  6.9 °C 29.9in /  1012.2hPa WSW 0.9mph /  1.4km/h 1mph /  1.6km/h 65% 0in /  0.0mm 0 W/m2
22:33 55.9 °F /  13.3 °C 44.8 °F /  7.1 °C 29.9in /  1012.2hPa Calm   1mph /  1.6km/h 66% 0in /  0.0mm 0 W/m2
22:38 55.8 °F /  13.2 °C 44.6 °F /  7 °C 29.9in /  1012.2hPa Calm     66% 0in /  0.0mm 0 W/m2
22:43 55.8 °F /  13.2 °C 44.6 °F /  7 °C 29.9in /  1012.2hPa WSW 1mph /  1.6km/h 1mph /  1.6km/h 66% 0in /  0.0mm 0 W/m2
22:48 55.4 °F /  13 °C 44.2 °F /  6.8 °C 29.9in /  1012.2hPa Calm     66% 0in /  0.0mm 0 W/m2
22:53 55 °F /  12.8 °C 44.2 °F /  6.8 °C 29.9in /  1012.2hPa Calm     67% 0in /  0.0mm 0 W/m2
22:58 54.9 °F /  12.7 °C 44.1 °F /  6.7 °C 29.9in /  1012.2hPa Calm     67% 0in /  0.0mm 0 W/m2
23:03 54.5 °F /  12.5 °C 44.2 °F /  6.8 °C 29.9in /  1012.2hPa Calm     68% 0in /  0.0mm 0 W/m2
23:08 54.1 °F /  12.3 °C 43.9 °F /  6.6 °C 29.9in /  1012.5hPa Calm     68% 0in /  0.0mm 0 W/m2
23:13 54 °F /  12.2 °C 44.1 °F /  6.7 °C 29.9in /  1012.2hPa Calm     69% 0in /  0.0mm 0 W/m2
23:18 53.8 °F /  12.1 °C 43.9 °F /  6.6 °C 29.9in /  1012.5hPa Calm     69% 0in /  0.0mm 0 W/m2
23:23 53.6 °F /  12 °C 44.1 °F /  6.7 °C 29.9in /  1012.5hPa WSW 0.9mph /  1.4km/h 1mph /  1.6km/h 70% 0in /  0.0mm 0 W/m2
23:28 53.6 °F /  12 °C 44.1 °F /  6.7 °C 29.9in /  1012.2hPa Calm     70% 0in /  0.0mm 0 W/m2
23:33 53.8 °F /  12.1 °C 44.6 °F /  7 °C 29.9in /  1012.5hPa South 0.9mph /  1.4km/h 2mph /  3.2km/h 71% 0in /  0.0mm 0 W/m2
23:38 53.8 °F /  12.1 °C 44.2 °F /  6.8 °C 29.9in /  1012.5hPa Calm     70% 0in /  0.0mm 0 W/m2
23:43 53.8 °F /  12.1 °C 44.2 °F /  6.8 °C 29.9in /  1012.5hPa Calm   1mph /  1.6km/h 70% 0in /  0.0mm 0 W/m2
23:48 53.6 °F /  12 °C 44.4 °F /  6.9 °C 29.9in /  1012.5hPa Calm   1mph /  1.6km/h 71% 0in /  0.0mm 0 W/m2
23:53 53.4 °F /  11.9 °C 44.2 °F /  6.8 °C 29.9in /  1012.5hPa Calm   1mph /  1.6km/h 71% 0in /  0.0mm 0 W/m2
23:59 53.2 °F /  11.8 °C 44.1 °F /  6.7 °C 29.9in /  1012.5hPa Calm   1mph /  1.6km/h 71% 0in /  0.0mm 0 W/m2
Juneau County Weather
Compliments of Weather Underground - 4 mb